createdAt,value
2023-03-24T00:01:24.985Z,9.35
2023-03-24T00:03:53.114Z,9.36
2023-03-24T00:06:23.010Z,9.37
2023-03-24T00:08:51.097Z,9.36
2023-03-24T00:11:21.503Z,9.37
2023-03-24T00:13:50.739Z,9.34
2023-03-24T00:16:20.020Z,9.34
2023-03-24T00:18:53.210Z,9.32
2023-03-24T00:21:27.474Z,9.27
2023-03-24T00:23:58.367Z,9.22
2023-03-24T00:26:26.300Z,9.15
2023-03-24T00:28:55.753Z,9.12
2023-03-24T00:31:24.858Z,9.09
2023-03-24T00:33:54.845Z,9.05
2023-03-24T00:36:25.856Z,9.02
2023-03-24T00:38:56.473Z,9.00
2023-03-24T00:41:26.974Z,9.02
2023-03-24T00:43:58.779Z,9.02
2023-03-24T00:46:29.877Z,8.98
2023-03-24T00:49:06.911Z,8.92
2023-03-24T00:51:38.539Z,8.87
2023-03-24T00:54:09.354Z,8.82
2023-03-24T00:56:40.609Z,8.78
2023-03-24T00:59:10.611Z,8.75
2023-03-24T01:01:41.361Z,8.73
2023-03-24T01:04:10.554Z,8.74
2023-03-24T01:06:40.093Z,8.74
2023-03-24T01:09:08.895Z,8.73
2023-03-24T01:11:41.375Z,8.73
2023-03-24T01:14:11.836Z,8.75
2023-03-24T01:16:40.616Z,8.82
2023-03-24T01:19:09.530Z,8.88
2023-03-24T01:21:39.406Z,8.95
2023-03-24T01:24:08.423Z,8.98
2023-03-24T01:26:36.488Z,9.04
2023-03-24T01:29:05.080Z,9.11
2023-03-24T01:31:33.295Z,9.19
2023-03-24T01:34:01.436Z,9.20
2023-03-24T01:36:29.390Z,9.17
2023-03-24T01:39:01.162Z,9.19
2023-03-24T01:41:41.205Z,9.24
2023-03-24T01:44:43.192Z,9.26
2023-03-24T01:47:11.188Z,9.30
2023-03-24T01:49:45.758Z,9.42
2023-03-24T01:52:22.743Z,9.46
2023-03-24T01:54:58.332Z,9.50
2023-03-24T01:57:35.804Z,9.48
2023-03-24T02:00:09.401Z,9.46
2023-03-24T02:02:55.067Z,9.44
2023-03-24T02:05:28.465Z,9.40
2023-03-24T02:08:10.811Z,9.36
2023-03-24T02:10:39.157Z,9.30
2023-03-24T02:13:08.010Z,9.23
2023-03-24T02:15:54.266Z,9.19
2023-03-24T02:18:37.905Z,9.25
2023-03-24T02:21:43.744Z,9.26
2023-03-24T02:24:43.311Z,9.29
2023-03-24T02:27:30.208Z,9.25
2023-03-24T02:30:40.493Z,9.23
2023-03-24T02:33:46.090Z,9.20
2023-03-24T02:36:50.797Z,9.15
2023-03-24T02:39:24.649Z,9.16
2023-03-24T02:42:14.423Z,9.11
2023-03-24T02:44:58.651Z,9.05
2023-03-24T02:47:41.106Z,9.02
2023-03-24T02:50:19.463Z,8.98
2023-03-24T02:52:56.734Z,8.95
2023-03-24T02:55:33.905Z,8.93
2023-03-24T02:58:07.512Z,8.92
2023-03-24T03:00:59.464Z,8.92
2023-03-24T03:03:49.580Z,8.92
2023-03-24T03:06:24.454Z,8.94
2023-03-24T03:08:55.963Z,8.98
2023-03-24T03:11:23.891Z,8.96
2023-03-24T03:14:01.322Z,8.98
2023-03-24T03:16:38.710Z,9.03
2023-03-24T03:19:18.108Z,8.99
2023-03-24T03:21:49.672Z,8.95
2023-03-24T03:24:27.026Z,8.90
2023-03-24T03:27:02.452Z,8.86
2023-03-24T03:29:38.371Z,8.82
2023-03-24T03:32:09.856Z,8.78
2023-03-24T03:34:44.410Z,8.73
2023-03-24T03:37:36.678Z,8.67
2023-03-24T03:40:12.162Z,8.65
2023-03-24T03:42:42.155Z,8.64
2023-03-24T03:45:11.330Z,8.58
2023-03-24T03:47:40.498Z,8.49
2023-03-24T03:50:10.133Z,8.51
2023-03-24T03:52:41.679Z,8.55
2023-03-24T03:55:12.080Z,8.59
2023-03-24T03:57:41.436Z,8.62
2023-03-24T04:00:16.070Z,8.64
2023-03-24T04:03:07.432Z,8.71
2023-03-24T04:05:38.562Z,8.72
2023-03-24T04:08:22.266Z,8.73
2023-03-24T04:11:36.226Z,8.75
2023-03-24T04:14:37.698Z,8.80
2023-03-24T04:17:42.691Z,8.84
2023-03-24T04:20:22.383Z,8.86
2023-03-24T04:23:05.224Z,8.91
2023-03-24T04:25:57.018Z,8.88
2023-03-24T04:28:48.026Z,8.87
2023-03-24T04:31:39.229Z,8.91
2023-03-24T04:34:28.898Z,8.94
2023-03-24T04:37:06.026Z,8.94
2023-03-24T04:39:47.006Z,8.94
2023-03-24T04:42:23.730Z,9.02
2023-03-24T04:44:52.822Z,9.09
2023-03-24T04:47:45.310Z,9.09
2023-03-24T04:50:38.775Z,9.18
2023-03-24T04:53:10.704Z,9.25
2023-03-24T04:55:50.911Z,9.29
2023-03-24T04:58:27.445Z,9.33
2023-03-24T05:00:56.752Z,9.39
2023-03-24T05:03:26.393Z,9.46
2023-03-24T05:05:54.639Z,9.57
2023-03-24T05:08:23.131Z,9.65
2023-03-24T05:10:51.516Z,9.70
2023-03-24T05:13:19.577Z,9.70
2023-03-24T05:15:53.884Z,9.71
2023-03-24T05:18:29.785Z,9.78
2023-03-24T05:20:58.167Z,9.87
2023-03-24T05:23:26.545Z,9.98
2023-03-24T05:25:55.049Z,10.12
2023-03-24T05:28:24.289Z,10.26
2023-03-24T05:30:53.778Z,10.38
2023-03-24T05:33:44.834Z,10.47
2023-03-24T05:36:16.360Z,10.53
2023-03-24T05:38:45.830Z,10.64
2023-03-24T05:41:13.796Z,10.71
2023-03-24T05:43:42.818Z,10.76
2023-03-24T05:46:12.255Z,10.81
2023-03-24T05:48:41.346Z,10.89
2023-03-24T05:51:13.146Z,11.02
2023-03-24T05:53:41.406Z,11.11
2023-03-24T05:56:33.103Z,11.18
2023-03-24T05:59:07.808Z,11.26
2023-03-24T06:01:56.974Z,11.37
2023-03-24T06:04:37.165Z,11.52
2023-03-24T06:07:11.667Z,11.61
2023-03-24T06:09:42.667Z,11.71
2023-03-24T06:12:13.229Z,11.82
2023-03-24T06:14:48.499Z,11.97
2023-03-24T06:17:16.408Z,12.08
2023-03-24T06:19:49.947Z,12.18
2023-03-24T06:22:38.731Z,12.28
2023-03-24T06:25:12.336Z,12.40
2023-03-24T06:27:48.536Z,12.51
2023-03-24T06:30:19.362Z,12.56
2023-03-24T06:32:47.672Z,12.66
2023-03-24T06:35:17.914Z,12.68
2023-03-24T06:38:15.448Z,12.72
2023-03-24T06:40:45.094Z,12.81
2023-03-24T06:43:13.284Z,12.88
2023-03-24T06:45:45.736Z,12.95
2023-03-24T06:48:19.734Z,13.05
2023-03-24T06:50:48.297Z,13.13
2023-03-24T06:53:17.170Z,13.19
2023-03-24T06:55:46.252Z,13.18
2023-03-24T06:58:15.763Z,13.19
2023-03-24T07:00:55.394Z,13.27
2023-03-24T07:03:48.796Z,13.34
2023-03-24T07:06:18.577Z,13.33
2023-03-24T07:08:50.753Z,13.35
2023-03-24T07:11:19.629Z,13.41
2023-03-24T07:13:55.391Z,13.47
2023-03-24T07:16:23.739Z,13.53
2023-03-24T07:18:59.568Z,13.59
2023-03-24T07:21:28.381Z,13.59
2023-03-24T07:23:56.749Z,13.55
2023-03-24T07:26:35.275Z,13.58
2023-03-24T07:29:11.899Z,13.65
2023-03-24T07:31:54.535Z,13.72
2023-03-24T07:34:22.603Z,13.77
2023-03-24T07:36:50.610Z,13.84
2023-03-24T07:39:18.730Z,13.90
2023-03-24T07:41:47.343Z,13.98
2023-03-24T07:44:29.782Z,14.10
2023-03-24T07:47:01.743Z,14.19
2023-03-24T07:49:29.727Z,14.18
2023-03-24T07:52:09.712Z,14.16
2023-03-24T07:54:46.781Z,14.11
2023-03-24T07:57:37.400Z,14.10
2023-03-24T08:00:18.053Z,14.10
2023-03-24T08:02:53.792Z,14.14
2023-03-24T08:05:29.708Z,14.21
2023-03-24T08:08:16.671Z,14.26
2023-03-24T08:10:46.556Z,14.35
2023-03-24T08:13:14.732Z,14.39
2023-03-24T08:15:42.652Z,14.50
2023-03-24T08:18:10.641Z,14.67
2023-03-24T08:20:38.455Z,14.75
2023-03-24T08:23:07.322Z,14.94
2023-03-24T08:25:36.514Z,15.05
2023-03-24T08:28:06.161Z,15.18
2023-03-24T08:30:34.235Z,15.30
2023-03-24T08:33:03.684Z,15.34
2023-03-24T08:35:34.528Z,15.42
2023-03-24T08:38:06.058Z,15.52
2023-03-24T08:40:36.194Z,15.63
2023-03-24T08:43:08.720Z,15.78
2023-03-24T08:45:37.322Z,15.85
2023-03-24T08:48:07.362Z,15.96
2023-03-24T08:50:39.989Z,16.09
2023-03-24T08:53:09.591Z,16.22
2023-03-24T08:55:41.817Z,16.34
2023-03-24T08:58:15.351Z,16.42
2023-03-24T09:00:45.037Z,16.49
2023-03-24T09:03:18.503Z,16.51
2023-03-24T09:05:47.922Z,16.51
2023-03-24T09:08:18.356Z,16.56
2023-03-24T09:10:49.806Z,16.66
2023-03-24T09:13:20.076Z,16.78
2023-03-24T09:15:53.723Z,16.92
2023-03-24T09:18:22.400Z,17.02
2023-03-24T09:20:51.230Z,17.10
2023-03-24T09:23:20.450Z,17.15
2023-03-24T09:25:51.251Z,17.27
2023-03-24T09:28:19.705Z,17.42
2023-03-24T09:30:47.919Z,17.43
2023-03-24T09:33:16.328Z,17.47
2023-03-24T09:35:44.346Z,17.54
2023-03-24T09:38:12.498Z,17.64
2023-03-24T09:40:43.671Z,17.80
2023-03-24T09:43:31.862Z,17.99
2023-03-24T09:46:04.037Z,18.13
2023-03-24T09:48:55.114Z,18.14
2023-03-24T09:51:28.684Z,18.11
2023-03-24T09:54:17.164Z,18.11
2023-03-24T09:56:48.035Z,18.23
2023-03-24T09:59:29.828Z,18.30
2023-03-24T10:01:58.278Z,18.30
2023-03-24T10:04:28.889Z,18.26
2023-03-24T10:07:16.444Z,18.26
2023-03-24T10:09:48.992Z,18.28
2023-03-24T10:12:45.503Z,18.30
2023-03-24T10:15:37.401Z,18.33
2023-03-24T10:18:06.460Z,18.23
2023-03-24T10:20:47.306Z,18.25
2023-03-24T10:23:30.438Z,18.21
2023-03-24T10:26:23.188Z,18.31
2023-03-24T10:29:04.896Z,18.31
2023-03-24T10:31:35.095Z,18.20
2023-03-24T10:34:03.386Z,18.08
2023-03-24T10:36:32.400Z,17.94
2023-03-24T10:39:09.584Z,17.81
2023-03-24T10:41:46.841Z,17.65
2023-03-24T10:44:15.096Z,17.46
2023-03-24T10:46:47.183Z,17.35
2023-03-24T10:49:20.666Z,17.27
2023-03-24T10:51:51.922Z,17.27
2023-03-24T10:54:24.039Z,17.31
2023-03-24T10:56:57.952Z,17.39
2023-03-24T10:59:32.224Z,17.45
2023-03-24T11:02:16.325Z,17.42
2023-03-24T11:04:54.892Z,17.39
2023-03-24T11:07:35.410Z,17.34
2023-03-24T11:10:09.224Z,17.35
2023-03-24T11:12:40.166Z,17.39
2023-03-24T11:15:29.457Z,17.37
2023-03-24T11:18:16.691Z,17.35
2023-03-24T11:20:47.608Z,17.36
2023-03-24T11:23:20.163Z,17.38
2023-03-24T11:26:02.675Z,17.38
2023-03-24T11:28:37.955Z,17.53
2023-03-24T11:31:09.104Z,17.70
2023-03-24T11:33:47.391Z,17.90
2023-03-24T11:36:30.979Z,18.06
2023-03-24T11:39:04.754Z,18.21
2023-03-24T11:41:42.021Z,18.39
2023-03-24T11:44:19.031Z,18.46
2023-03-24T11:46:59.703Z,18.51
2023-03-24T11:49:36.165Z,18.50
2023-03-24T11:52:09.672Z,18.40
2023-03-24T11:54:37.842Z,18.35
2023-03-24T11:57:13.787Z,18.39
2023-03-24T11:59:58.305Z,18.40
2023-03-24T12:02:57.455Z,18.48
2023-03-24T12:05:37.682Z,18.71
2023-03-24T12:08:09.041Z,18.99
2023-03-24T12:11:04.866Z,19.26
2023-03-24T12:13:39.340Z,19.59
2023-03-24T12:16:20.001Z,19.95
2023-03-24T12:19:07.213Z,20.15
2023-03-24T12:21:52.998Z,20.34
2023-03-24T12:24:39.936Z,20.44
2023-03-24T12:27:22.112Z,20.47
2023-03-24T12:30:02.720Z,20.63
2023-03-24T12:32:58.879Z,20.87
2023-03-24T12:36:01.595Z,20.97
2023-03-24T12:38:58.392Z,21.06
2023-03-24T12:41:49.612Z,20.89
2023-03-24T12:44:39.292Z,20.81
2023-03-24T12:47:44.888Z,20.74
2023-03-24T12:50:17.876Z,20.66
2023-03-24T12:53:12.118Z,20.60
2023-03-24T12:55:48.635Z,20.54
2023-03-24T12:58:23.986Z,20.46
2023-03-24T13:01:13.316Z,20.40
2023-03-24T13:03:48.725Z,20.20
2023-03-24T13:06:24.019Z,20.17
2023-03-24T13:09:30.113Z,20.16
2023-03-24T13:12:02.916Z,20.29
2023-03-24T13:14:42.140Z,20.23
2023-03-24T13:17:18.007Z,20.18
2023-03-24T13:19:46.932Z,20.11
2023-03-24T13:22:18.324Z,19.97
2023-03-24T13:24:47.965Z,19.93
2023-03-24T13:27:28.746Z,19.79
2023-03-24T13:30:20.911Z,19.81
2023-03-24T13:32:56.791Z,19.89
2023-03-24T13:35:27.342Z,19.90
2023-03-24T13:38:19.446Z,19.79
2023-03-24T13:40:53.618Z,19.77
2023-03-24T13:43:29.226Z,19.72
2023-03-24T13:46:03.536Z,19.60
2023-03-24T13:48:41.870Z,19.52
2023-03-24T13:51:33.052Z,19.50
2023-03-24T13:54:18.312Z,19.44
2023-03-24T13:57:01.695Z,19.36
2023-03-24T14:00:15.839Z,19.32
2023-03-24T14:02:50.064Z,19.29
2023-03-24T14:05:54.916Z,19.41
2023-03-24T14:08:53.940Z,19.57
2023-03-24T14:11:57.210Z,19.63
2023-03-24T14:14:27.534Z,19.72
2023-03-24T14:17:13.777Z,19.88
2023-03-24T14:20:08.797Z,19.98
2023-03-24T14:22:48.475Z,19.94
2023-03-24T14:25:16.321Z,19.97
2023-03-24T14:27:46.802Z,20.04
2023-03-24T14:30:30.968Z,20.01
2023-03-24T14:33:02.275Z,19.93
2023-03-24T14:35:43.861Z,19.84
2023-03-24T14:38:14.578Z,19.79
2023-03-24T14:40:46.349Z,19.75
2023-03-24T14:43:23.218Z,19.66
2023-03-24T14:45:56.830Z,19.58
2023-03-24T14:48:36.121Z,19.48
2023-03-24T14:51:27.396Z,19.41
2023-03-24T14:53:59.563Z,19.30
2023-03-24T14:56:34.844Z,19.19
2023-03-24T14:59:09.452Z,19.06
2023-03-24T15:01:38.518Z,18.93
2023-03-24T15:04:08.513Z,18.79
2023-03-24T15:06:47.550Z,18.72
2023-03-24T15:09:17.666Z,18.65
2023-03-24T15:11:48.504Z,18.57
2023-03-24T15:14:26.301Z,18.46
2023-03-24T15:17:06.583Z,18.38
2023-03-24T15:19:35.622Z,18.25
2023-03-24T15:22:11.764Z,18.15
2023-03-24T15:24:43.443Z,18.06
2023-03-24T15:27:26.717Z,17.92
2023-03-24T15:30:00.177Z,17.54
2023-03-24T15:32:32.371Z,16.65
2023-03-24T15:35:05.731Z,15.45
2023-03-24T15:37:41.695Z,14.73
2023-03-24T15:40:29.762Z,14.37
2023-03-24T15:43:00.332Z,14.05
2023-03-24T15:45:31.894Z,13.97
2023-03-24T15:48:16.766Z,13.81
2023-03-24T15:51:09.382Z,13.66
2023-03-24T15:53:44.634Z,13.60
2023-03-24T15:56:20.258Z,13.55
2023-03-24T15:58:54.779Z,13.48
2023-03-24T16:01:31.702Z,13.40
2023-03-24T16:04:02.134Z,13.32
2023-03-24T16:06:35.455Z,13.15
2023-03-24T16:09:13.770Z,13.01
2023-03-24T16:11:42.729Z,12.86
2023-03-24T16:14:32.561Z,12.80
2023-03-24T16:17:03.755Z,12.73
2023-03-24T16:19:31.676Z,12.59
2023-03-24T16:21:59.964Z,12.56
2023-03-24T16:24:27.860Z,12.50
2023-03-24T16:26:55.817Z,12.45
2023-03-24T16:29:24.132Z,12.44
2023-03-24T16:31:55.396Z,12.40
2023-03-24T16:34:23.944Z,12.35
2023-03-24T16:36:54.448Z,12.32
2023-03-24T16:39:25.679Z,12.35
2023-03-24T16:41:54.368Z,12.33
2023-03-24T16:44:23.258Z,12.26
2023-03-24T16:46:53.885Z,12.31
2023-03-24T16:49:23.993Z,12.34
2023-03-24T16:51:56.186Z,12.35
2023-03-24T16:54:24.034Z,12.29
2023-03-24T16:56:52.020Z,12.26
2023-03-24T16:59:20.832Z,12.25
2023-03-24T17:01:52.302Z,12.23
2023-03-24T17:04:24.758Z,12.17
2023-03-24T17:06:54.440Z,12.10
2023-03-24T17:09:22.945Z,12.01
2023-03-24T17:11:56.361Z,11.86
2023-03-24T17:14:24.682Z,11.81
2023-03-24T17:16:53.770Z,11.79
2023-03-24T17:19:23.641Z,11.74
2023-03-24T17:22:05.911Z,11.69
2023-03-24T17:24:36.056Z,11.61
2023-03-24T17:27:10.376Z,11.55
2023-03-24T17:29:38.284Z,11.50
2023-03-24T17:32:06.145Z,11.50
2023-03-24T17:34:34.097Z,11.45
2023-03-24T17:37:01.994Z,11.39
2023-03-24T17:39:30.242Z,11.35
2023-03-24T17:42:01.320Z,11.28
2023-03-24T17:44:29.231Z,11.26
2023-03-24T17:46:57.169Z,11.25
2023-03-24T17:49:25.058Z,11.23
2023-03-24T17:51:52.903Z,11.21
2023-03-24T17:54:21.316Z,11.18
2023-03-24T17:56:49.299Z,11.17
2023-03-24T17:59:17.740Z,11.20
2023-03-24T18:01:47.270Z,11.21
2023-03-24T18:04:15.425Z,11.21
2023-03-24T18:06:44.256Z,11.17
2023-03-24T18:09:12.051Z,11.25
2023-03-24T18:11:39.841Z,11.29
2023-03-24T18:14:09.295Z,11.31
2023-03-24T18:16:39.374Z,11.27
2023-03-24T18:19:07.661Z,11.18
2023-03-24T18:21:35.876Z,11.16
2023-03-24T18:24:04.633Z,11.11
2023-03-24T18:26:33.648Z,11.04
2023-03-24T18:29:01.552Z,11.01
2023-03-24T18:31:32.501Z,10.95
2023-03-24T18:34:00.643Z,10.86
2023-03-24T18:36:29.211Z,10.83
2023-03-24T18:39:07.007Z,10.83
2023-03-24T18:41:37.452Z,10.79
2023-03-24T18:44:08.697Z,10.72
2023-03-24T18:46:37.034Z,10.62
2023-03-24T18:49:06.286Z,10.55
2023-03-24T18:51:35.598Z,10.48
2023-03-24T18:54:03.626Z,10.44
2023-03-24T18:56:31.570Z,10.34
2023-03-24T18:58:59.584Z,10.32
2023-03-24T19:01:27.387Z,10.28
2023-03-24T19:03:55.527Z,10.22
2023-03-24T19:06:31.214Z,10.17
2023-03-24T19:09:00.068Z,10.14
2023-03-24T19:11:28.232Z,10.10
2023-03-24T19:13:57.045Z,10.08
2023-03-24T19:16:25.063Z,10.04
2023-03-24T19:18:53.132Z,9.98
2023-03-24T19:21:23.245Z,9.94
2023-03-24T19:23:52.560Z,9.91
2023-03-24T19:26:21.209Z,9.89
2023-03-24T19:28:49.331Z,9.87
2023-03-24T19:31:19.975Z,9.83
2023-03-24T19:33:48.060Z,9.83
2023-03-24T19:36:15.980Z,9.84
2023-03-24T19:38:44.398Z,9.85
2023-03-24T19:41:14.370Z,9.84
2023-03-24T19:43:43.452Z,9.82
2023-03-24T19:46:11.317Z,9.79
2023-03-24T19:48:39.245Z,9.76
2023-03-24T19:51:07.175Z,9.74
2023-03-24T19:53:35.142Z,9.73
2023-03-24T19:56:04.222Z,9.71
2023-03-24T19:58:32.233Z,9.74
2023-03-24T20:01:00.142Z,9.74
2023-03-24T20:03:29.099Z,9.74
2023-03-24T20:06:03.461Z,9.74
2023-03-24T20:08:31.347Z,9.76
2023-03-24T20:10:59.110Z,9.78
2023-03-24T20:13:27.775Z,9.76
2023-03-24T20:15:55.909Z,9.74
2023-03-24T20:18:24.066Z,9.74
2023-03-24T20:20:55.396Z,9.74
2023-03-24T20:23:23.163Z,9.75
2023-03-24T20:25:52.189Z,9.76
2023-03-24T20:28:20.559Z,9.77
2023-03-24T20:30:49.079Z,9.76
2023-03-24T20:33:17.055Z,9.76
2023-03-24T20:35:44.932Z,9.77
2023-03-24T20:38:13.573Z,9.75
2023-03-24T20:40:41.402Z,9.71
2023-03-24T20:43:09.542Z,9.69
2023-03-24T20:45:37.465Z,9.70
2023-03-24T20:48:05.704Z,9.67
2023-03-24T20:50:33.589Z,9.63
2023-03-24T20:53:01.438Z,9.66
2023-03-24T20:55:29.281Z,9.63
2023-03-24T20:57:57.111Z,9.63
2023-03-24T21:00:25.056Z,9.73
2023-03-24T21:02:52.987Z,9.70
2023-03-24T21:05:21.563Z,9.66
2023-03-24T21:07:49.369Z,9.65
2023-03-24T21:10:17.364Z,9.63
2023-03-24T21:12:53.445Z,9.61
2023-03-24T21:15:25.209Z,9.59
2023-03-24T21:17:54.572Z,9.59
2023-03-24T21:20:26.730Z,9.59
2023-03-24T21:22:55.615Z,9.58
2023-03-24T21:25:28.505Z,9.59
2023-03-24T21:27:57.872Z,9.55
2023-03-24T21:30:27.580Z,9.56
2023-03-24T21:32:57.339Z,9.55
2023-03-24T21:35:25.626Z,9.51
2023-03-24T21:37:54.035Z,9.51
2023-03-24T21:40:24.834Z,9.44
2023-03-24T21:42:54.021Z,9.42
2023-03-24T21:45:23.584Z,9.36
2023-03-24T21:47:54.904Z,9.34
2023-03-24T21:50:23.579Z,9.32
2023-03-24T21:52:53.668Z,9.23
2023-03-24T21:55:23.178Z,9.17
2023-03-24T21:57:51.983Z,9.18
2023-03-24T22:00:26.285Z,9.20
2023-03-24T22:02:54.380Z,9.16
2023-03-24T22:05:24.995Z,9.13
2023-03-24T22:07:54.095Z,9.08
2023-03-24T22:10:29.813Z,9.05
2023-03-24T22:12:57.859Z,9.03
2023-03-24T22:15:25.930Z,9.04
2023-03-24T22:17:53.869Z,9.05
2023-03-24T22:20:22.800Z,9.02
2023-03-24T22:22:50.685Z,8.92
2023-03-24T22:25:18.807Z,8.85
2023-03-24T22:27:50.078Z,8.77
2023-03-24T22:30:20.214Z,8.66
2023-03-24T22:32:48.400Z,8.61
2023-03-24T22:35:16.764Z,8.58
2023-03-24T22:37:44.941Z,8.56
2023-03-24T22:40:12.811Z,8.55
2023-03-24T22:42:41.061Z,8.54
2023-03-24T22:45:09.374Z,8.50
2023-03-24T22:47:37.214Z,8.50
2023-03-24T22:50:06.010Z,8.45
2023-03-24T22:52:34.052Z,8.42
2023-03-24T22:55:02.021Z,8.44
2023-03-24T22:57:29.983Z,8.48
2023-03-24T23:00:01.846Z,8.46
2023-03-24T23:02:30.873Z,8.43
2023-03-24T23:04:59.329Z,8.40
2023-03-24T23:07:28.313Z,8.35
2023-03-24T23:09:59.568Z,8.27
2023-03-24T23:12:27.757Z,8.24
2023-03-24T23:14:56.069Z,8.21
2023-03-24T23:17:24.403Z,8.20
2023-03-24T23:19:54.020Z,8.14
2023-03-24T23:22:23.129Z,8.11
2023-03-24T23:25:02.284Z,8.08
2023-03-24T23:27:38.013Z,8.09
2023-03-24T23:30:08.296Z,8.06
2023-03-24T23:32:37.004Z,8.01
2023-03-24T23:35:08.157Z,7.98
2023-03-24T23:37:37.150Z,7.92
2023-03-24T23:40:13.079Z,7.92
2023-03-24T23:42:46.533Z,7.89
2023-03-24T23:45:18.351Z,7.87
2023-03-24T23:47:49.590Z,7.85
2023-03-24T23:50:19.875Z,7.85
2023-03-24T23:52:48.097Z,7.88
2023-03-24T23:55:18.200Z,7.91
2023-03-24T23:57:49.324Z,7.90
